sensor_id;sensor_type;location;lat;lon;timestamp;temperature;humidity
10437;DHT22;5265;50.006;9.202;2023-06-14T00:01:15;15.40;91.50
10437;DHT22;5265;50.006;9.202;2023-06-14T00:03:42;15.30;91.70
10437;DHT22;5265;50.006;9.202;2023-06-14T00:06:09;15.30;91.90
10437;DHT22;5265;50.006;9.202;2023-06-14T00:08:37;15.10;92.30
10437;DHT22;5265;50.006;9.202;2023-06-14T00:11:05;15.00;92.60
10437;DHT22;5265;50.006;9.202;2023-06-14T00:13:32;14.90;93.00
10437;DHT22;5265;50.006;9.202;2023-06-14T00:16:01;14.80;93.00
10437;DHT22;5265;50.006;9.202;2023-06-14T00:18:30;14.80;93.20
10437;DHT22;5265;50.006;9.202;2023-06-14T00:20:57;14.70;93.10
10437;DHT22;5265;50.006;9.202;2023-06-14T00:23:24;14.60;93.20
10437;DHT22;5265;50.006;9.202;2023-06-14T00:25:51;14.60;93.70
10437;DHT22;5265;50.006;9.202;2023-06-14T00:28:18;14.50;93.30
10437;DHT22;5265;50.006;9.202;2023-06-14T00:30:46;14.40;93.70
10437;DHT22;5265;50.006;9.202;2023-06-14T00:33:14;14.40;93.90
10437;DHT22;5265;50.006;9.202;2023-06-14T00:35:42;14.40;94.20
10437;DHT22;5265;50.006;9.202;2023-06-14T00:38:10;14.30;94.10
10437;DHT22;5265;50.006;9.202;2023-06-14T00:40:39;14.30;93.90
10437;DHT22;5265;50.006;9.202;2023-06-14T00:43:06;14.30;94.40
10437;DHT22;5265;50.006;9.202;2023-06-14T00:45:33;14.20;94.20
10437;DHT22;5265;50.006;9.202;2023-06-14T00:48:01;14.20;94.20
10437;DHT22;5265;50.006;9.202;2023-06-14T00:50:30;14.10;94.40
10437;DHT22;5265;50.006;9.202;2023-06-14T00:52:58;14.10;94.30
10437;DHT22;5265;50.006;9.202;2023-06-14T00:55:26;14.00;94.20
10437;DHT22;5265;50.006;9.202;2023-06-14T00:57:54;14.00;94.40
10437;DHT22;5265;50.006;9.202;2023-06-14T01:00:22;14.00;95.10
10437;DHT22;5265;50.006;9.202;2023-06-14T01:02:49;14.10;95.10
10437;DHT22;5265;50.006;9.202;2023-06-14T01:05:16;14.00;94.80
10437;DHT22;5265;50.006;9.202;2023-06-14T01:07:51;14.00;95.10
10437;DHT22;5265;50.006;9.202;2023-06-14T01:10:26;14.00;95.40
10437;DHT22;5265;50.006;9.202;2023-06-14T01:12:58;14.00;95.70
10437;DHT22;5265;50.006;9.202;2023-06-14T01:15:27;13.90;95.80
10437;DHT22;5265;50.006;9.202;2023-06-14T01:17:54;13.90;95.70
10437;DHT22;5265;50.006;9.202;2023-06-14T01:20:28;13.90;95.40
10437;DHT22;5265;50.006;9.202;2023-06-14T01:22:58;13.90;95.50
10437;DHT22;5265;50.006;9.202;2023-06-14T01:25:25;13.90;95.00
10437;DHT22;5265;50.006;9.202;2023-06-14T01:27:55;13.90;95.60
10437;DHT22;5265;50.006;9.202;2023-06-14T01:30:25;13.90;95.90
10437;DHT22;5265;50.006;9.202;2023-06-14T01:32:53;13.90;95.80
10437;DHT22;5265;50.006;9.202;2023-06-14T01:35:20;13.80;95.70
10437;DHT22;5265;50.006;9.202;2023-06-14T01:37:48;13.90;95.80
10437;DHT22;5265;50.006;9.202;2023-06-14T01:40:17;13.90;95.70
10437;DHT22;5265;50.006;9.202;2023-06-14T01:42:45;13.90;95.70
10437;DHT22;5265;50.006;9.202;2023-06-14T01:45:12;14.00;95.80
10437;DHT22;5265;50.006;9.202;2023-06-14T01:47:40;13.90;95.80
10437;DHT22;5265;50.006;9.202;2023-06-14T01:50:08;13.90;96.10
10437;DHT22;5265;50.006;9.202;2023-06-14T01:52:36;13.90;95.90
10437;DHT22;5265;50.006;9.202;2023-06-14T01:55:03;13.90;96.10
10437;DHT22;5265;50.006;9.202;2023-06-14T01:57:32;13.90;96.20
10437;DHT22;5265;50.006;9.202;2023-06-14T01:59:59;13.90;96.00
10437;DHT22;5265;50.006;9.202;2023-06-14T02:02:27;13.70;96.60
10437;DHT22;5265;50.006;9.202;2023-06-14T02:04:54;13.70;96.80
10437;DHT22;5265;50.006;9.202;2023-06-14T02:07:23;13.70;97.00
10437;DHT22;5265;50.006;9.202;2023-06-14T02:09:51;13.60;97.00
10437;DHT22;5265;50.006;9.202;2023-06-14T02:12:17;13.70;97.20
10437;DHT22;5265;50.006;9.202;2023-06-14T02:14:46;13.70;96.90
10437;DHT22;5265;50.006;9.202;2023-06-14T02:17:14;13.60;97.10
10437;DHT22;5265;50.006;9.202;2023-06-14T02:19:41;13.70;97.20
10437;DHT22;5265;50.006;9.202;2023-06-14T02:22:09;13.50;97.50
10437;DHT22;5265;50.006;9.202;2023-06-14T02:24:36;13.50;97.70
10437;DHT22;5265;50.006;9.202;2023-06-14T02:27:07;13.50;97.60
10437;DHT22;5265;50.006;9.202;2023-06-14T02:29:35;13.40;97.80
10437;DHT22;5265;50.006;9.202;2023-06-14T02:32:05;13.40;97.80
10437;DHT22;5265;50.006;9.202;2023-06-14T02:34:33;13.40;98.20
10437;DHT22;5265;50.006;9.202;2023-06-14T02:37:00;13.40;98.10
10437;DHT22;5265;50.006;9.202;2023-06-14T02:39:28;13.30;98.20
10437;DHT22;5265;50.006;9.202;2023-06-14T02:41:56;13.30;98.40
10437;DHT22;5265;50.006;9.202;2023-06-14T02:44:24;13.30;98.50
10437;DHT22;5265;50.006;9.202;2023-06-14T02:46:51;13.20;98.90
10437;DHT22;5265;50.006;9.202;2023-06-14T02:49:20;13.20;99.10
10437;DHT22;5265;50.006;9.202;2023-06-14T02:51:47;13.10;99.30
10437;DHT22;5265;50.006;9.202;2023-06-14T02:54:14;13.00;99.70
10437;DHT22;5265;50.006;9.202;2023-06-14T02:56:41;13.00;99.90
10437;DHT22;5265;50.006;9.202;2023-06-14T02:59:09;13.00;99.90
10437;DHT22;5265;50.006;9.202;2023-06-14T03:01:38;12.80;99.90
10437;DHT22;5265;50.006;9.202;2023-06-14T03:04:09;12.80;99.90
10437;DHT22;5265;50.006;9.202;2023-06-14T03:06:40;12.80;99.90
10437;DHT22;5265;50.006;9.202;2023-06-14T03:09:11;12.70;99.90
10437;DHT22;5265;50.006;9.202;2023-06-14T03:11:40;12.60;99.90
10437;DHT22;5265;50.006;9.202;2023-06-14T03:14:07;12.70;99.90
10437;DHT22;5265;50.006;9.202;2023-06-14T03:16:35;12.70;99.90
10437;DHT22;5265;50.006;9.202;2023-06-14T03:19:03;12.70;99.90
10437;DHT22;5265;50.006;9.202;2023-06-14T03:21:32;12.70;99.90
10437;DHT22;5265;50.006;9.202;2023-06-14T03:24:03;12.70;99.90
10437;DHT22;5265;50.006;9.202;2023-06-14T03:26:32;12.60;99.90
10437;DHT22;5265;50.006;9.202;2023-06-14T03:29:00;12.60;99.90
10437;DHT22;5265;50.006;9.202;2023-06-14T03:31:28;12.60;99.90
10437;DHT22;5265;50.006;9.202;2023-06-14T03:34:00;12.60;99.90
10437;DHT22;5265;50.006;9.202;2023-06-14T03:36:27;12.60;99.90
10437;DHT22;5265;50.006;9.202;2023-06-14T03:38:54;12.50;99.90
10437;DHT22;5265;50.006;9.202;2023-06-14T03:41:23;12.50;99.90
10437;DHT22;5265;50.006;9.202;2023-06-14T03:43:53;12.60;99.90
10437;DHT22;5265;50.006;9.202;2023-06-14T03:46:21;12.60;99.90
10437;DHT22;5265;50.006;9.202;2023-06-14T03:48:48;12.50;99.90
10437;DHT22;5265;50.006;9.202;2023-06-14T03:51:16;12.40;99.90
10437;DHT22;5265;50.006;9.202;2023-06-14T03:53:44;12.40;99.90
10437;DHT22;5265;50.006;9.202;2023-06-14T03:56:11;12.40;99.90
10437;DHT22;5265;50.006;9.202;2023-06-14T03:58:43;12.40;99.90
10437;DHT22;5265;50.006;9.202;2023-06-14T04:01:11;12.40;99.90
10437;DHT22;5265;50.006;9.202;2023-06-14T04:03:39;12.50;99.90
10437;DHT22;5265;50.006;9.202;2023-06-14T04:06:06;12.50;99.90
10437;DHT22;5265;50.006;9.202;2023-06-14T04:08:33;12.50;99.90
10437;DHT22;5265;50.006;9.202;2023-06-14T04:11:01;12.60;99.90
10437;DHT22;5265;50.006;9.202;2023-06-14T04:13:28;12.60;99.90
10437;DHT22;5265;50.006;9.202;2023-06-14T04:15:57;12.60;99.90
10437;DHT22;5265;50.006;9.202;2023-06-14T04:18:31;12.60;99.90
10437;DHT22;5265;50.006;9.202;2023-06-14T04:20:58;12.70;99.90
10437;DHT22;5265;50.006;9.202;2023-06-14T04:23:27;12.70;99.90
10437;DHT22;5265;50.006;9.202;2023-06-14T04:25:54;12.80;99.90
10437;DHT22;5265;50.006;9.202;2023-06-14T04:28:27;12.90;99.90
10437;DHT22;5265;50.006;9.202;2023-06-14T04:30:58;13.00;99.90
10437;DHT22;5265;50.006;9.202;2023-06-14T04:33:29;13.00;99.90
10437;DHT22;5265;50.006;9.202;2023-06-14T04:35:57;12.90;99.90
10437;DHT22;5265;50.006;9.202;2023-06-14T04:38:26;13.00;99.90
10437;DHT22;5265;50.006;9.202;2023-06-14T04:40:54;13.00;99.90
10437;DHT22;5265;50.006;9.202;2023-06-14T04:43:23;13.20;99.90
10437;DHT22;5265;50.006;9.202;2023-06-14T04:45:52;13.20;99.90
10437;DHT22;5265;50.006;9.202;2023-06-14T04:48:22;13.20;99.90
10437;DHT22;5265;50.006;9.202;2023-06-14T04:50:50;13.20;99.90
10437;DHT22;5265;50.006;9.202;2023-06-14T04:53:19;13.30;99.90
10437;DHT22;5265;50.006;9.202;2023-06-14T04:55:51;13.30;99.90
10437;DHT22;5265;50.006;9.202;2023-06-14T04:58:20;13.50;99.90
10437;DHT22;5265;50.006;9.202;2023-06-14T05:00:47;13.60;99.90
10437;DHT22;5265;50.006;9.202;2023-06-14T05:03:15;13.60;99.90
10437;DHT22;5265;50.006;9.202;2023-06-14T05:05:45;13.80;99.90
10437;DHT22;5265;50.006;9.202;2023-06-14T05:08:12;14.00;99.90
10437;DHT22;5265;50.006;9.202;2023-06-14T05:10:40;14.00;99.90
10437;DHT22;5265;50.006;9.202;2023-06-14T05:13:07;14.10;99.90
10437;DHT22;5265;50.006;9.202;2023-06-14T05:15:34;14.30;99.90
10437;DHT22;5265;50.006;9.202;2023-06-14T05:18:02;14.50;99.90
10437;DHT22;5265;50.006;9.202;2023-06-14T05:20:29;14.60;99.90
10437;DHT22;5265;50.006;9.202;2023-06-14T05:22:58;14.80;99.90
10437;DHT22;5265;50.006;9.202;2023-06-14T05:25:26;14.90;99.90
10437;DHT22;5265;50.006;9.202;2023-06-14T05:27:54;15.10;99.90
10437;DHT22;5265;50.006;9.202;2023-06-14T05:30:21;15.20;99.90
10437;DHT22;5265;50.006;9.202;2023-06-14T05:32:49;15.30;99.90
10437;DHT22;5265;50.006;9.202;2023-06-14T05:35:16;15.40;99.90
10437;DHT22;5265;50.006;9.202;2023-06-14T05:37:43;15.50;99.90
10437;DHT22;5265;50.006;9.202;2023-06-14T05:40:12;15.60;99.90
10437;DHT22;5265;50.006;9.202;2023-06-14T05:42:40;15.80;99.90
10437;DHT22;5265;50.006;9.202;2023-06-14T05:45:07;15.80;99.90
10437;DHT22;5265;50.006;9.202;2023-06-14T05:47:34;16.00;99.90
10437;DHT22;5265;50.006;9.202;2023-06-14T05:50:01;16.20;99.70
10437;DHT22;5265;50.006;9.202;2023-06-14T05:52:29;16.20;99.50
10437;DHT22;5265;50.006;9.202;2023-06-14T05:54:57;16.30;99.10
10437;DHT22;5265;50.006;9.202;2023-06-14T05:57:25;16.40;98.60
10437;DHT22;5265;50.006;9.202;2023-06-14T05:59:52;16.60;98.30
10437;DHT22;5265;50.006;9.202;2023-06-14T06:02:19;16.70;98.40
10437;DHT22;5265;50.006;9.202;2023-06-14T06:04:47;16.70;98.20
10437;DHT22;5265;50.006;9.202;2023-06-14T06:07:14;16.80;98.10
10437;DHT22;5265;50.006;9.202;2023-06-14T06:09:42;17.00;98.00
10437;DHT22;5265;50.006;9.202;2023-06-14T06:12:09;17.00;97.70
10437;DHT22;5265;50.006;9.202;2023-06-14T06:14:37;17.10;97.60
10437;DHT22;5265;50.006;9.202;2023-06-14T06:17:05;17.20;97.50
10437;DHT22;5265;50.006;9.202;2023-06-14T06:19:32;17.30;97.20
10437;DHT22;5265;50.006;9.202;2023-06-14T06:21:59;17.40;97.00
10437;DHT22;5265;50.006;9.202;2023-06-14T06:24:26;17.40;96.70
10437;DHT22;5265;50.006;9.202;2023-06-14T06:26:54;17.50;96.40
10437;DHT22;5265;50.006;9.202;2023-06-14T06:29:21;17.60;96.20
10437;DHT22;5265;50.006;9.202;2023-06-14T06:31:52;17.70;96.20
10437;DHT22;5265;50.006;9.202;2023-06-14T06:34:19;17.80;96.00
10437;DHT22;5265;50.006;9.202;2023-06-14T06:36:47;17.90;95.70
10437;DHT22;5265;50.006;9.202;2023-06-14T06:39:14;18.10;95.60
10437;DHT22;5265;50.006;9.202;2023-06-14T06:41:41;18.20;95.70
10437;DHT22;5265;50.006;9.202;2023-06-14T06:44:08;18.20;95.60
10437;DHT22;5265;50.006;9.202;2023-06-14T06:46:38;18.30;95.30
10437;DHT22;5265;50.006;9.202;2023-06-14T06:49:08;18.40;95.30
10437;DHT22;5265;50.006;9.202;2023-06-14T06:51:37;18.60;94.70
10437;DHT22;5265;50.006;9.202;2023-06-14T06:54:04;18.70;94.40
10437;DHT22;5265;50.006;9.202;2023-06-14T06:56:32;18.80;94.20
10437;DHT22;5265;50.006;9.202;2023-06-14T06:58:59;18.80;93.50
10437;DHT22;5265;50.006;9.202;2023-06-14T07:01:26;18.90;93.70
10437;DHT22;5265;50.006;9.202;2023-06-14T07:03:54;19.00;93.60
10437;DHT22;5265;50.006;9.202;2023-06-14T07:06:23;19.20;93.50
10437;DHT22;5265;50.006;9.202;2023-06-14T07:08:53;19.20;92.90
10437;DHT22;5265;50.006;9.202;2023-06-14T07:11:20;19.30;93.00
10437;DHT22;5265;50.006;9.202;2023-06-14T07:13:47;19.30;92.70
10437;DHT22;5265;50.006;9.202;2023-06-14T07:16:14;19.40;92.80
10437;DHT22;5265;50.006;9.202;2023-06-14T07:18:42;19.50;92.50
10437;DHT22;5265;50.006;9.202;2023-06-14T07:21:10;19.60;92.20
10437;DHT22;5265;50.006;9.202;2023-06-14T07:23:38;19.60;92.20
10437;DHT22;5265;50.006;9.202;2023-06-14T07:26:05;19.70;92.20
10437;DHT22;5265;50.006;9.202;2023-06-14T07:28:32;19.80;92.00
10437;DHT22;5265;50.006;9.202;2023-06-14T07:30:59;19.90;91.90
10437;DHT22;5265;50.006;9.202;2023-06-14T07:33:26;20.00;91.60
10437;DHT22;5265;50.006;9.202;2023-06-14T07:35:54;20.00;91.70
10437;DHT22;5265;50.006;9.202;2023-06-14T07:38:21;20.10;91.60
10437;DHT22;5265;50.006;9.202;2023-06-14T07:40:50;20.30;91.30
10437;DHT22;5265;50.006;9.202;2023-06-14T07:43:18;20.40;91.10
10437;DHT22;5265;50.006;9.202;2023-06-14T07:45:45;20.40;91.00
10437;DHT22;5265;50.006;9.202;2023-06-14T07:48:12;20.50;91.00
10437;DHT22;5265;50.006;9.202;2023-06-14T07:50:39;20.60;90.70
10437;DHT22;5265;50.006;9.202;2023-06-14T07:53:06;20.70;90.70
10437;DHT22;5265;50.006;9.202;2023-06-14T07:55:34;20.70;90.50
10437;DHT22;5265;50.006;9.202;2023-06-14T07:58:04;20.70;90.00
10437;DHT22;5265;50.006;9.202;2023-06-14T08:00:31;20.70;89.20
10437;DHT22;5265;50.006;9.202;2023-06-14T08:02:58;20.80;89.20
10437;DHT22;5265;50.006;9.202;2023-06-14T08:05:26;20.90;88.80
10437;DHT22;5265;50.006;9.202;2023-06-14T08:07:54;20.90;89.60
10437;DHT22;5265;50.006;9.202;2023-06-14T08:10:21;20.90;89.00
10437;DHT22;5265;50.006;9.202;2023-06-14T08:12:48;21.00;88.70
10437;DHT22;5265;50.006;9.202;2023-06-14T08:15:18;21.10;87.60
10437;DHT22;5265;50.006;9.202;2023-06-14T08:17:46;21.20;87.50
10437;DHT22;5265;50.006;9.202;2023-06-14T08:20:13;21.30;87.60
10437;DHT22;5265;50.006;9.202;2023-06-14T08:22:42;21.40;87.80
10437;DHT22;5265;50.006;9.202;2023-06-14T08:25:12;21.50;87.10
10437;DHT22;5265;50.006;9.202;2023-06-14T08:27:39;21.50;85.60
10437;DHT22;5265;50.006;9.202;2023-06-14T08:30:07;21.60;85.90
10437;DHT22;5265;50.006;9.202;2023-06-14T08:32:37;21.60;86.50
10437;DHT22;5265;50.006;9.202;2023-06-14T08:35:04;21.80;86.40
10437;DHT22;5265;50.006;9.202;2023-06-14T08:37:33;21.90;85.90
10437;DHT22;5265;50.006;9.202;2023-06-14T08:40:00;21.90;85.60
10437;DHT22;5265;50.006;9.202;2023-06-14T08:42:27;22.00;83.70
10437;DHT22;5265;50.006;9.202;2023-06-14T08:44:54;22.10;84.00
10437;DHT22;5265;50.006;9.202;2023-06-14T08:47:21;22.10;84.60
10437;DHT22;5265;50.006;9.202;2023-06-14T08:49:52;22.20;83.70
10437;DHT22;5265;50.006;9.202;2023-06-14T08:52:21;22.30;84.50
10437;DHT22;5265;50.006;9.202;2023-06-14T08:54:49;22.30;82.70
10437;DHT22;5265;50.006;9.202;2023-06-14T08:57:16;22.40;82.90
10437;DHT22;5265;50.006;9.202;2023-06-14T08:59:46;22.30;82.50
10437;DHT22;5265;50.006;9.202;2023-06-14T09:02:15;22.40;82.60
10437;DHT22;5265;50.006;9.202;2023-06-14T09:04:43;22.60;82.20
10437;DHT22;5265;50.006;9.202;2023-06-14T09:07:12;22.70;82.30
10437;DHT22;5265;50.006;9.202;2023-06-14T09:09:41;22.80;81.20
10437;DHT22;5265;50.006;9.202;2023-06-14T09:12:10;22.90;81.50
10437;DHT22;5265;50.006;9.202;2023-06-14T09:14:38;23.00;80.90
10437;DHT22;5265;50.006;9.202;2023-06-14T09:17:07;23.00;79.90
10437;DHT22;5265;50.006;9.202;2023-06-14T09:19:35;23.10;79.80
10437;DHT22;5265;50.006;9.202;2023-06-14T09:22:03;23.20;80.60
10437;DHT22;5265;50.006;9.202;2023-06-14T09:24:31;23.30;79.70
10437;DHT22;5265;50.006;9.202;2023-06-14T09:26:58;23.30;79.50
10437;DHT22;5265;50.006;9.202;2023-06-14T09:29:25;23.50;78.70
10437;DHT22;5265;50.006;9.202;2023-06-14T09:31:53;23.60;78.30
10437;DHT22;5265;50.006;9.202;2023-06-14T09:34:20;23.70;78.90
10437;DHT22;5265;50.006;9.202;2023-06-14T09:36:49;23.80;79.70
10437;DHT22;5265;50.006;9.202;2023-06-14T09:39:16;23.80;80.70
10437;DHT22;5265;50.006;9.202;2023-06-14T09:41:45;23.70;80.50
10437;DHT22;5265;50.006;9.202;2023-06-14T09:44:13;23.80;79.60
10437;DHT22;5265;50.006;9.202;2023-06-14T09:46:40;23.90;79.70
10437;DHT22;5265;50.006;9.202;2023-06-14T09:49:08;23.90;80.60
10437;DHT22;5265;50.006;9.202;2023-06-14T09:51:36;24.00;80.40
10437;DHT22;5265;50.006;9.202;2023-06-14T09:54:08;24.00;78.60
10437;DHT22;5265;50.006;9.202;2023-06-14T09:56:36;24.00;79.20
10437;DHT22;5265;50.006;9.202;2023-06-14T09:59:05;24.10;79.00
10437;DHT22;5265;50.006;9.202;2023-06-14T10:01:33;24.20;79.10
10437;DHT22;5265;50.006;9.202;2023-06-14T10:04:02;24.40;78.70
10437;DHT22;5265;50.006;9.202;2023-06-14T10:06:29;24.40;79.50
10437;DHT22;5265;50.006;9.202;2023-06-14T10:08:58;24.50;75.70
10437;DHT22;5265;50.006;9.202;2023-06-14T10:11:26;24.50;78.10
10437;DHT22;5265;50.006;9.202;2023-06-14T10:13:54;24.80;78.10
10437;DHT22;5265;50.006;9.202;2023-06-14T10:16:24;24.90;76.10
10437;DHT22;5265;50.006;9.202;2023-06-14T10:18:59;24.90;75.70
10437;DHT22;5265;50.006;9.202;2023-06-14T10:21:28;24.90;74.50
10437;DHT22;5265;50.006;9.202;2023-06-14T10:23:59;25.00;74.80
10437;DHT22;5265;50.006;9.202;2023-06-14T10:26:28;25.20;75.70
10437;DHT22;5265;50.006;9.202;2023-06-14T10:28:56;25.30;75.90
10437;DHT22;5265;50.006;9.202;2023-06-14T10:31:26;25.40;76.00
10437;DHT22;5265;50.006;9.202;2023-06-14T10:34:06;25.30;75.40
10437;DHT22;5265;50.006;9.202;2023-06-14T10:36:33;25.30;74.40
10437;DHT22;5265;50.006;9.202;2023-06-14T10:39:04;25.20;74.50
10437;DHT22;5265;50.006;9.202;2023-06-14T10:41:34;25.20;75.10
10437;DHT22;5265;50.006;9.202;2023-06-14T10:44:10;25.20;75.70
10437;DHT22;5265;50.006;9.202;2023-06-14T10:46:39;25.30;74.90
10437;DHT22;5265;50.006;9.202;2023-06-14T10:49:06;25.50;75.40
10437;DHT22;5265;50.006;9.202;2023-06-14T10:51:38;25.80;75.10
10437;DHT22;5265;50.006;9.202;2023-06-14T10:54:12;25.90;73.60
10437;DHT22;5265;50.006;9.202;2023-06-14T10:56:45;25.90;74.10
10437;DHT22;5265;50.006;9.202;2023-06-14T10:59:15;26.00;74.70
10437;DHT22;5265;50.006;9.202;2023-06-14T11:01:47;26.20;73.00
10437;DHT22;5265;50.006;9.202;2023-06-14T11:04:20;26.20;72.50
10437;DHT22;5265;50.006;9.202;2023-06-14T11:06:47;26.20;73.60
10437;DHT22;5265;50.006;9.202;2023-06-14T11:09:29;26.00;74.10
10437;DHT22;5265;50.006;9.202;2023-06-14T11:12:02;25.80;73.00
10437;DHT22;5265;50.006;9.202;2023-06-14T11:14:30;25.80;73.50
10437;DHT22;5265;50.006;9.202;2023-06-14T11:16:58;25.90;73.00
10437;DHT22;5265;50.006;9.202;2023-06-14T11:19:26;25.80;72.00
10437;DHT22;5265;50.006;9.202;2023-06-14T11:21:54;25.90;71.90
10437;DHT22;5265;50.006;9.202;2023-06-14T11:24:22;25.80;71.60
10437;DHT22;5265;50.006;9.202;2023-06-14T11:26:49;25.80;72.50
10437;DHT22;5265;50.006;9.202;2023-06-14T11:29:16;26.00;73.60
10437;DHT22;5265;50.006;9.202;2023-06-14T11:31:47;26.10;71.90
10437;DHT22;5265;50.006;9.202;2023-06-14T11:34:15;26.30;71.30
10437;DHT22;5265;50.006;9.202;2023-06-14T11:36:42;26.40;71.00
10437;DHT22;5265;50.006;9.202;2023-06-14T11:39:13;26.30;70.70
10437;DHT22;5265;50.006;9.202;2023-06-14T11:41:42;26.20;71.30
10437;DHT22;5265;50.006;9.202;2023-06-14T11:44:10;25.90;71.50
10437;DHT22;5265;50.006;9.202;2023-06-14T11:46:38;26.00;70.90
10437;DHT22;5265;50.006;9.202;2023-06-14T11:49:06;26.00;71.10
10437;DHT22;5265;50.006;9.202;2023-06-14T11:51:37;26.20;69.60
10437;DHT22;5265;50.006;9.202;2023-06-14T11:54:05;26.50;69.40
10437;DHT22;5265;50.006;9.202;2023-06-14T11:56:36;26.80;69.90
10437;DHT22;5265;50.006;9.202;2023-06-14T11:59:04;27.00;69.50
10437;DHT22;5265;50.006;9.202;2023-06-14T12:01:31;27.10;68.80
10437;DHT22;5265;50.006;9.202;2023-06-14T12:03:58;27.20;69.10
10437;DHT22;5265;50.006;9.202;2023-06-14T12:06:26;27.10;70.30
10437;DHT22;5265;50.006;9.202;2023-06-14T12:09:00;27.10;69.40
10437;DHT22;5265;50.006;9.202;2023-06-14T12:11:32;26.90;68.50
10437;DHT22;5265;50.006;9.202;2023-06-14T12:13:59;27.10;68.50
10437;DHT22;5265;50.006;9.202;2023-06-14T12:16:30;27.30;66.40
10437;DHT22;5265;50.006;9.202;2023-06-14T12:19:09;27.30;67.80
10437;DHT22;5265;50.006;9.202;2023-06-14T12:21:37;27.60;66.60
10437;DHT22;5265;50.006;9.202;2023-06-14T12:24:07;28.00;65.50
10437;DHT22;5265;50.006;9.202;2023-06-14T12:26:37;27.90;64.80
10437;DHT22;5265;50.006;9.202;2023-06-14T12:29:05;27.90;64.80
10437;DHT22;5265;50.006;9.202;2023-06-14T12:31:32;28.10;63.80
10437;DHT22;5265;50.006;9.202;2023-06-14T12:33:59;28.00;63.80
10437;DHT22;5265;50.006;9.202;2023-06-14T12:36:27;28.20;64.20
10437;DHT22;5265;50.006;9.202;2023-06-14T12:38:54;28.40;65.00
10437;DHT22;5265;50.006;9.202;2023-06-14T12:41:23;28.50;63.20
10437;DHT22;5265;50.006;9.202;2023-06-14T12:43:50;28.40;64.20
10437;DHT22;5265;50.006;9.202;2023-06-14T12:46:17;28.20;64.10
10437;DHT22;5265;50.006;9.202;2023-06-14T12:48:45;27.90;64.70
10437;DHT22;5265;50.006;9.202;2023-06-14T12:51:11;27.60;65.00
10437;DHT22;5265;50.006;9.202;2023-06-14T12:53:39;27.30;66.20
10437;DHT22;5265;50.006;9.202;2023-06-14T12:56:06;27.00;65.10
10437;DHT22;5265;50.006;9.202;2023-06-14T12:58:35;27.00;64.20
10437;DHT22;5265;50.006;9.202;2023-06-14T13:01:02;27.00;64.50
10437;DHT22;5265;50.006;9.202;2023-06-14T13:03:29;27.60;66.10
10437;DHT22;5265;50.006;9.202;2023-06-14T13:05:59;28.30;65.40
10437;DHT22;5265;50.006;9.202;2023-06-14T13:08:26;28.70;64.50
10437;DHT22;5265;50.006;9.202;2023-06-14T13:10:53;29.10;63.60
10437;DHT22;5265;50.006;9.202;2023-06-14T13:13:21;29.00;61.80
10437;DHT22;5265;50.006;9.202;2023-06-14T13:15:50;29.40;63.10
10437;DHT22;5265;50.006;9.202;2023-06-14T13:18:17;29.70;62.50
10437;DHT22;5265;50.006;9.202;2023-06-14T13:20:45;29.40;62.50
10437;DHT22;5265;50.006;9.202;2023-06-14T13:23:12;29.70;62.30
10437;DHT22;5265;50.006;9.202;2023-06-14T13:25:39;30.30;62.40
10437;DHT22;5265;50.006;9.202;2023-06-14T13:28:07;30.00;61.20
10437;DHT22;5265;50.006;9.202;2023-06-14T13:30:34;29.80;60.70
10437;DHT22;5265;50.006;9.202;2023-06-14T13:33:03;29.70;60.90
10437;DHT22;5265;50.006;9.202;2023-06-14T13:35:30;30.10;61.50
10437;DHT22;5265;50.006;9.202;2023-06-14T13:37:57;30.60;60.40
10437;DHT22;5265;50.006;9.202;2023-06-14T13:40:24;30.70;58.40
10437;DHT22;5265;50.006;9.202;2023-06-14T13:42:52;30.00;59.80
10437;DHT22;5265;50.006;9.202;2023-06-14T13:45:19;29.40;61.60
10437;DHT22;5265;50.006;9.202;2023-06-14T13:47:46;28.90;63.10
10437;DHT22;5265;50.006;9.202;2023-06-14T13:50:15;28.80;64.00
10437;DHT22;5265;50.006;9.202;2023-06-14T13:52:43;28.60;62.50
10437;DHT22;5265;50.006;9.202;2023-06-14T13:55:10;28.20;62.80
10437;DHT22;5265;50.006;9.202;2023-06-14T13:57:37;27.40;62.70
10437;DHT22;5265;50.006;9.202;2023-06-14T14:00:05;27.30;63.90
10437;DHT22;5265;50.006;9.202;2023-06-14T14:02:41;27.30;63.30
10437;DHT22;5265;50.006;9.202;2023-06-14T14:05:08;27.40;63.20
10437;DHT22;5265;50.006;9.202;2023-06-14T14:07:37;27.90;62.10
10437;DHT22;5265;50.006;9.202;2023-06-14T14:10:06;28.70;60.60
10437;DHT22;5265;50.006;9.202;2023-06-14T14:12:33;29.00;61.30
10437;DHT22;5265;50.006;9.202;2023-06-14T14:15:00;29.70;60.60
10437;DHT22;5265;50.006;9.202;2023-06-14T14:17:28;30.10;59.60
10437;DHT22;5265;50.006;9.202;2023-06-14T14:19:55;30.40;58.60
10437;DHT22;5265;50.006;9.202;2023-06-14T14:22:22;30.10;58.10
10437;DHT22;5265;50.006;9.202;2023-06-14T14:24:51;29.80;58.30
10437;DHT22;5265;50.006;9.202;2023-06-14T14:27:18;29.30;60.30
10437;DHT22;5265;50.006;9.202;2023-06-14T14:29:45;29.10;60.70
10437;DHT22;5265;50.006;9.202;2023-06-14T14:32:12;28.90;60.90
10437;DHT22;5265;50.006;9.202;2023-06-14T14:34:40;28.80;61.10
10437;DHT22;5265;50.006;9.202;2023-06-14T14:37:08;29.00;61.30
10437;DHT22;5265;50.006;9.202;2023-06-14T14:39:36;29.50;60.00
10437;DHT22;5265;50.006;9.202;2023-06-14T14:42:05;29.90;60.10
10437;DHT22;5265;50.006;9.202;2023-06-14T14:44:33;29.90;60.40
10437;DHT22;5265;50.006;9.202;2023-06-14T14:47:01;30.40;59.40
10437;DHT22;5265;50.006;9.202;2023-06-14T14:49:28;31.10;58.80
10437;DHT22;5265;50.006;9.202;2023-06-14T14:51:56;31.40;59.00
10437;DHT22;5265;50.006;9.202;2023-06-14T14:54:23;31.80;58.90
10437;DHT22;5265;50.006;9.202;2023-06-14T14:56:51;32.30;58.50
10437;DHT22;5265;50.006;9.202;2023-06-14T14:59:20;32.90;56.50
10437;DHT22;5265;50.006;9.202;2023-06-14T15:01:47;33.10;56.10
10437;DHT22;5265;50.006;9.202;2023-06-14T15:04:15;33.10;55.30
10437;DHT22;5265;50.006;9.202;2023-06-14T15:06:42;33.00;55.20
10437;DHT22;5265;50.006;9.202;2023-06-14T15:09:09;33.50;57.10
10437;DHT22;5265;50.006;9.202;2023-06-14T15:11:38;33.50;55.00
10437;DHT22;5265;50.006;9.202;2023-06-14T15:14:05;33.80;54.70
10437;DHT22;5265;50.006;9.202;2023-06-14T15:16:34;33.70;53.30
10437;DHT22;5265;50.006;9.202;2023-06-14T15:19:01;32.60;54.50
10437;DHT22;5265;50.006;9.202;2023-06-14T15:21:28;32.40;55.00
10437;DHT22;5265;50.006;9.202;2023-06-14T15:23:56;30.90;55.30
10437;DHT22;5265;50.006;9.202;2023-06-14T15:26:23;30.30;55.50
10437;DHT22;5265;50.006;9.202;2023-06-14T15:28:50;30.30;56.50
10437;DHT22;5265;50.006;9.202;2023-06-14T15:31:18;30.60;57.20
10437;DHT22;5265;50.006;9.202;2023-06-14T15:33:46;30.80;56.80
10437;DHT22;5265;50.006;9.202;2023-06-14T15:36:13;31.10;57.20
10437;DHT22;5265;50.006;9.202;2023-06-14T15:38:41;31.00;57.00
10437;DHT22;5265;50.006;9.202;2023-06-14T15:41:08;30.80;57.60
10437;DHT22;5265;50.006;9.202;2023-06-14T15:43:35;31.30;57.70
10437;DHT22;5265;50.006;9.202;2023-06-14T15:46:02;30.90;57.50
10437;DHT22;5265;50.006;9.202;2023-06-14T15:48:29;30.70;56.70
10437;DHT22;5265;50.006;9.202;2023-06-14T15:50:58;31.30;55.70